8NY7 weather

Oneida Lake Strip Airport
Oneida, New York, United States

Public forecast

Using degrees Fahrenheit for public forecast. Weather courtesy of forecast.io.

Closest aviation weather report (METAR) to Oneida Lake Strip Airport

Closest report is Griffiss International Airport, 13.6 nm (25.3 km) ENE. Retrieved 2019/10/15 17:53 UTC (25 minutes ago):

KRME 151753Z 25004KT 10SM FEW040 FEW055 13/03 A3013 RMK AO2 SLP203 T01330033 10133 20044 58016

Closest aviation forecast (TAF) to Oneida Lake Strip Airport

Closest forecast is Griffiss International Airport, 13.6 nm (25.3 km) ENE. Retrieved 2019/10/15 18:24 UTC (0 seconds ago):

TAF KRME 151723Z 1518/1618 VRB03KT P6SM FEW250 FM160900 12008KT P6SM FEW100 BKN250 WS020/19035KT FM161400 13012KT P6SM BKN080